Kramer, North Dakota
Current Conditions -  °F | °C
As of 9:18 PM on Thursday 18 Dec 2014 (Local Time) from KMIB Reporting Station
Overcast Overcast  
Wind Chill: 23°   Ceiling: 700
Heat Index: 23°   Visibility: 10mi
Dew Point: 23°   Wind: 3mph
Humidity: 100%   Direction: 130°SE
Pressure: 29.97"   Gusts: NA
Location:  48.69°N, 100.71°W
Report Text: KMIB 190318Z AUTO 13003KT 10SM OVC007 M05/M05 A2997 RMK AO2
Loading
Personal Weather Stations






























Interactive Weather Map New forecast layout! Learn more

10-Day Weather Forecast

Advertisements
Track Severe Weather on mobile